E.r.brandenburg — A8SZ5 — position and weather

sailwx.info

Track history (hours):
 
Tides and Currents Weather Stations Pressure Air Temp Water Temp Dewpoint Dewpoint Depression Visibility Wind Speed Wind Dir Waves Ship Positions

E.r.brandenburg

Last reported at 2014-Jul-25 17:32 UTC. Time now 2014-Jul-25 18:30 UTC.
Position N 36°02' E 140°48'.

Length 292 m; draft 17.6 m.

Type: Cargo ship. MMSI: 636091798.

Date/timePositionNaut miles runAvg speedWind from/ knotsBaromVisibWave heightAir tempDewpointWater temp
2014-Jul-25 17:32N 36°02' E 140°48'0 0.0
2014-Jul-25 12:32N 36°02' E 140°48'0 0.0
2014-Jul-25 11:14N 36°02' E 140°48'0 0.1
2014-Jul-25 10:32N 36°02' E 140°48'0 0.0
2014-Jul-25 08:14N 36°02' E 140°48'0 0.1
2014-Jul-25 06:20N 36°02' E 140°48'2 2.8
2014-Jul-25 05:33N 36°01' E 140°51'8 7.8
2014-Jul-25 04:33N 35°57' E 140°59'1410.1
2014-Jul-25 03:08N 35°44' E 141°04'711.0
2014-Jul-25 02:29N 35°38' E 140°60'1611.7
2014-Jul-25 01:08N 35°24' E 140°50'1112.2
2014-Jul-25 00:14N 35°14' E 140°45'811.3
2014-Jul-24 23:32N 35°07' E 140°40'1513.8
2014-Jul-24 22:28N 34°54' E 140°32'1414.0
2014-Jul-24 21:30N 34°41' E 140°25'1514.1
2014-Jul-24 20:25N 34°28' E 140°16'1213.7
2014-Jul-24 19:32N 34°18' E 140°08'1613.5
2014-Jul-24 18:22N 34°04' E 139°59'1113.9
2014-Jul-24 17:33N 33°54' E 139°53'16914.7
2014-Jul-24 06:00N 31°12' E 138°54'107 8.9 250 / 101008.0 5.4 1.531.026.930.0
2014-Jul-23 18:00N 29°30' E 138°18'   260 / 91010.0 5.4 1.526.023.128.0
2014-Jul-20 18:00N 16°12' E 134°18'51510.7 160 / 241006.0 5.4 5.028.025.230.0
2014-Jul-18 18:00N 08°36' E 130°12'14211.8 270 / 241006.0 1.1 3.025.022.029.0
2014-Jul-18 06:00N 06°30' E 129°06'   240 / 201008.0 5.4 2.028.025.229.0
Track history (hours):
 
Tides and Currents Weather Stations Pressure Air Temp Water Temp Dewpoint Dewpoint Depression Visibility Wind Speed Wind Dir Waves Ship Positions

E.r.brandenburg

Last reported at 2014-Jul-25 17:32 UTC. Time now 2014-Jul-25 18:30 UTC.
Position N 36°02' E 140°48'.

Length 292 m; draft 17.6 m.

Type: Cargo ship. MMSI: 636091798.

Date/timePositionNaut miles runAvg speedWind from/ knotsBaromVisibWave heightAir tempDewpointWater temp
2014-Jul-25 17:32N 36°02' E 140°48'0 0.0
2014-Jul-25 12:32N 36°02' E 140°48'0 0.0
2014-Jul-25 11:14N 36°02' E 140°48'0 0.1
2014-Jul-25 10:32N 36°02' E 140°48'0 0.0
2014-Jul-25 08:14N 36°02' E 140°48'0 0.1
2014-Jul-25 06:20N 36°02' E 140°48'2 2.8
2014-Jul-25 05:33N 36°01' E 140°51'8 7.8
2014-Jul-25 04:33N 35°57' E 140°59'1410.1
2014-Jul-25 03:08N 35°44' E 141°04'711.0
2014-Jul-25 02:29N 35°38' E 140°60'1611.7
2014-Jul-25 01:08N 35°24' E 140°50'1112.2
2014-Jul-25 00:14N 35°14' E 140°45'811.3
2014-Jul-24 23:32N 35°07' E 140°40'1513.8
2014-Jul-24 22:28N 34°54' E 140°32'1414.0
2014-Jul-24 21:30N 34°41' E 140°25'1514.1
2014-Jul-24 20:25N 34°28' E 140°16'1213.7
2014-Jul-24 19:32N 34°18' E 140°08'1613.5
2014-Jul-24 18:22N 34°04' E 139°59'1113.9
2014-Jul-24 17:33N 33°54' E 139°53'16914.7
2014-Jul-24 06:00N 31°12' E 138°54'107 8.9 250 / 101008.0 5.4 1.531.026.930.0
2014-Jul-23 18:00N 29°30' E 138°18'   260 / 91010.0 5.4 1.526.023.128.0
2014-Jul-20 18:00N 16°12' E 134°18'51510.7 160 / 241006.0 5.4 5.028.025.230.0
2014-Jul-18 18:00N 08°36' E 130°12'14211.8 270 / 241006.0 1.1 3.025.022.029.0
2014-Jul-18 06:00N 06°30' E 129°06'   240 / 201008.0 5.4 2.028.025.229.0

Dump ship's entire track history